Aviation Digital Data Service (ADDS)

Output produced by METARs form (2324 UTC 03 September 2015)
found at http://aviationweather.gov/adds/metars/
 
KROA 031854Z 0319/0418 01008KT P6SM VCTS SCT050CB SCT120 
     FM032100 34007KT P6SM VCSH BKN060 
     FM040300 34003KT P6SM SCT060 BKN100 
     FM041600 04005KT P6SM VCSH BKN050